createdAt,value
2024-04-24T01:55:37.928Z,44.20
2024-04-24T01:58:09.413Z,45.83
2024-04-24T02:00:41.939Z,46.00
2024-04-24T02:03:11.896Z,43.03
2024-04-24T02:05:41.924Z,44.20
2024-04-24T02:08:12.212Z,44.37
2024-04-24T02:10:47.330Z,43.17
2024-04-24T02:13:17.543Z,46.93
2024-04-24T02:15:47.530Z,43.30
2024-04-24T02:18:17.878Z,43.10
2024-04-24T02:20:50.932Z,41.80
2024-04-24T02:23:22.047Z,42.53
2024-04-24T02:25:54.894Z,40.70
2024-04-24T02:28:25.010Z,43.50
2024-04-24T02:30:55.124Z,43.30
2024-04-24T02:33:25.476Z,43.13
2024-04-24T02:35:55.537Z,42.80
2024-04-24T02:38:22.976Z,45.07
2024-04-24T02:40:55.687Z,42.00
2024-04-24T02:43:25.677Z,42.23
2024-04-24T02:45:55.938Z,41.43
2024-04-24T02:48:28.269Z,40.70
2024-04-24T02:50:58.353Z,40.37
2024-04-24T02:53:28.513Z,37.80
2024-04-24T02:56:01.372Z,41.73
2024-04-24T02:58:31.331Z,42.60
2024-04-24T03:01:01.416Z,40.23
2024-04-24T03:03:31.615Z,43.27
2024-04-24T03:06:01.694Z,43.13
2024-04-24T03:08:31.932Z,43.40
2024-04-24T03:11:05.926Z,45.67
2024-04-24T03:13:36.118Z,45.10
2024-04-24T03:16:06.416Z,37.33
2024-04-24T03:18:36.596Z,44.53
2024-04-24T03:21:07.201Z,43.77
2024-04-24T03:23:37.267Z,43.80
2024-04-24T03:26:12.435Z,44.50
2024-04-24T03:28:42.459Z,44.63
2024-04-24T03:31:12.563Z,45.33
2024-04-24T03:33:42.593Z,47.80
2024-04-24T03:36:12.701Z,46.87
2024-04-24T03:38:42.761Z,45.07
2024-04-24T03:41:15.945Z,46.63
2024-04-24T03:43:46.494Z,45.23
2024-04-24T03:46:16.561Z,43.80
2024-04-24T03:48:46.750Z,45.63
2024-04-24T03:51:16.810Z,47.27
2024-04-24T03:53:46.769Z,48.63
2024-04-24T03:56:19.620Z,50.00
2024-04-24T03:58:49.714Z,51.47
2024-04-24T04:01:29.232Z,51.77
2024-04-24T04:04:02.570Z,50.43
2024-04-24T04:06:33.621Z,48.43
2024-04-24T04:09:03.995Z,43.30
2024-04-24T04:11:36.796Z,41.10
2024-04-24T04:14:06.811Z,42.10
2024-04-24T04:16:59.311Z,42.07
2024-04-24T04:19:42.874Z,17.33
2024-04-24T04:22:13.207Z,16.20
2024-04-24T04:24:43.394Z,16.93
2024-04-24T04:27:16.182Z,16.30
2024-04-24T04:29:46.238Z,18.27
2024-04-24T04:32:16.768Z,15.67
2024-04-24T04:34:47.989Z,15.40
2024-04-24T04:37:18.485Z,15.53
2024-04-24T04:39:48.949Z,24.40
2024-04-24T04:42:21.822Z,15.50
2024-04-24T04:44:51.794Z,14.93
2024-04-24T04:47:21.938Z,15.20
2024-04-24T04:49:51.947Z,14.97
2024-04-24T04:52:21.765Z,14.90
2024-04-24T04:54:51.771Z,15.50
2024-04-24T04:57:24.475Z,15.90
2024-04-24T04:59:57.337Z,15.87
2024-04-24T05:02:29.101Z,16.30
2024-04-24T05:05:11.808Z,16.60
2024-04-24T05:07:41.910Z,16.80
2024-04-24T05:10:12.021Z,15.87
2024-04-24T05:12:44.773Z,16.13
2024-04-24T05:15:14.856Z,15.90
2024-04-24T05:17:45.066Z,16.10
2024-04-24T05:20:17.170Z,19.40
2024-04-24T05:22:55.068Z,16.37
2024-04-24T05:25:38.342Z,17.00
2024-04-24T05:28:29.205Z,17.13
2024-04-24T05:30:59.496Z,17.37
2024-04-24T05:33:29.609Z,17.00
2024-04-24T05:35:59.699Z,16.63
2024-04-24T05:38:29.754Z,16.90
2024-04-24T05:40:59.801Z,18.17
2024-04-24T05:43:37.354Z,16.90
2024-04-24T05:46:09.495Z,18.07
2024-04-24T05:48:39.615Z,17.83
2024-04-24T05:51:10.050Z,19.50
2024-04-24T05:53:42.540Z,18.10
2024-04-24T05:56:15.259Z,17.27
2024-04-24T05:58:48.256Z,17.70
2024-04-24T06:01:18.526Z,16.90
2024-04-24T06:03:48.594Z,17.30
2024-04-24T06:06:18.518Z,16.83
2024-04-24T06:08:48.519Z,17.90
2024-04-24T06:11:20.974Z,17.60
2024-04-24T06:13:53.654Z,17.63
2024-04-24T06:16:26.038Z,15.40
2024-04-24T06:18:58.491Z,17.20
2024-04-24T06:21:30.126Z,17.60
2024-04-24T06:24:00.103Z,17.20
2024-04-24T06:26:30.208Z,17.17
2024-04-24T06:29:03.118Z,15.70
2024-04-24T06:31:33.170Z,16.50
2024-04-24T06:34:03.194Z,17.10
2024-04-24T06:36:33.473Z,15.53
2024-04-24T06:39:05.069Z,16.10
2024-04-24T06:41:35.079Z,16.20
2024-04-24T06:44:08.515Z,16.10
2024-04-24T06:46:38.691Z,16.27
2024-04-24T06:49:08.770Z,16.40
2024-04-24T06:51:38.795Z,16.20
2024-04-24T06:54:08.869Z,62.33
2024-04-24T06:56:40.567Z,53.57
2024-04-24T06:59:13.418Z,74.37
2024-04-24T07:01:43.839Z,85.67
2024-04-24T07:04:13.960Z,61.33
2024-04-24T07:06:46.342Z,66.50
2024-04-24T07:09:16.398Z,43.47
2024-04-24T07:11:46.391Z,55.30
2024-04-24T07:14:19.172Z,37.57
2024-04-24T07:16:51.820Z,51.67
2024-04-24T07:19:21.906Z,46.23
2024-04-24T07:21:54.442Z,55.10
2024-04-24T07:24:24.525Z,46.20
2024-04-24T07:26:54.613Z,44.10
2024-04-24T07:29:27.315Z,38.33
2024-04-24T07:31:57.352Z,57.60
2024-04-24T07:34:27.372Z,64.03
2024-04-24T07:36:57.378Z,64.23
2024-04-24T07:39:29.970Z,77.83
2024-04-24T07:42:02.258Z,73.57
2024-04-24T07:44:35.231Z,85.30
2024-04-24T07:47:23.862Z,85.50
2024-04-24T07:49:54.421Z,57.63
2024-04-24T07:52:24.415Z,71.90
2024-04-24T07:54:54.427Z,75.23
2024-04-24T07:57:24.502Z,81.43
2024-04-24T07:59:57.218Z,84.80
2024-04-24T08:02:27.288Z,85.90
2024-04-24T08:04:59.827Z,70.60
2024-04-24T08:07:29.823Z,66.20
2024-04-24T08:09:59.890Z,75.13
2024-04-24T08:12:29.974Z,73.17
2024-04-24T08:15:02.745Z,81.87
2024-04-24T08:17:32.942Z,70.60
2024-04-24T08:20:05.335Z,70.73
2024-04-24T08:22:35.454Z,56.90
2024-04-24T08:25:05.501Z,57.33
2024-04-24T08:27:35.680Z,48.00
2024-04-24T08:30:09.414Z,44.53
2024-04-24T08:32:39.582Z,50.57
2024-04-24T08:35:09.967Z,53.80
2024-04-24T08:37:48.374Z,48.53
2024-04-24T08:40:21.685Z,57.33
2024-04-24T08:42:51.887Z,56.77
2024-04-24T08:45:25.112Z,62.27
2024-04-24T08:47:55.365Z,63.37
2024-04-24T08:50:26.426Z,58.83
2024-04-24T08:53:01.673Z,49.53
2024-04-24T08:55:32.749Z,61.30
2024-04-24T08:58:03.534Z,44.47
2024-04-24T09:00:39.201Z,52.43
2024-04-24T09:03:20.771Z,48.53
2024-04-24T09:05:53.267Z,49.77
2024-04-24T09:08:24.722Z,40.13
2024-04-24T09:10:54.829Z,40.63
2024-04-24T09:13:25.790Z,38.60
2024-04-24T09:16:03.115Z,36.77
2024-04-24T09:18:33.543Z,45.97
2024-04-24T09:21:04.655Z,37.83
2024-04-24T09:23:34.781Z,39.13
2024-04-24T09:26:05.654Z,45.87
2024-04-24T09:28:35.566Z,50.10
2024-04-24T09:31:10.204Z,55.67
2024-04-24T09:33:40.335Z,48.73
2024-04-24T09:36:10.703Z,46.57
2024-04-24T09:38:41.961Z,57.00
2024-04-24T09:41:14.612Z,59.53
2024-04-24T09:43:44.677Z,67.40
2024-04-24T09:46:19.472Z,70.43
2024-04-24T09:48:49.528Z,69.93
2024-04-24T09:51:22.273Z,69.73
2024-04-24T09:53:52.303Z,73.33
2024-04-24T09:56:26.111Z,77.47
2024-04-24T09:58:59.023Z,72.93
2024-04-24T10:01:33.360Z,70.93
2024-04-24T10:04:07.329Z,60.43
2024-04-24T10:06:39.470Z,67.77
2024-04-24T10:09:10.399Z,63.73
2024-04-24T10:11:48.273Z,62.57
2024-04-24T10:14:22.769Z,58.20
2024-04-24T10:16:56.757Z,58.60
2024-04-24T10:19:27.255Z,59.27
2024-04-24T10:22:00.235Z,44.83
2024-04-24T10:24:30.645Z,60.23
2024-04-24T10:27:02.078Z,51.43
2024-04-24T10:29:34.200Z,53.10
2024-04-24T10:32:08.790Z,42.93
2024-04-24T10:34:39.494Z,39.77
2024-04-24T10:37:11.903Z,39.87
2024-04-24T10:39:46.009Z,52.97
2024-04-24T10:42:16.581Z,46.00
2024-04-24T10:44:47.541Z,42.73
2024-04-24T10:47:21.440Z,50.13
2024-04-24T10:49:58.815Z,48.20
2024-04-24T10:52:29.360Z,45.40
2024-04-24T10:55:12.635Z,48.67
2024-04-24T10:57:49.317Z,52.30
2024-04-24T11:00:20.479Z,79.97
2024-04-24T11:02:59.161Z,57.13
2024-04-24T11:05:36.174Z,83.20
2024-04-24T11:08:08.678Z,91.53
2024-04-24T11:10:38.690Z,89.90
2024-04-24T11:13:17.834Z,79.43
2024-04-24T11:15:58.257Z,78.60
2024-04-24T11:18:37.120Z,72.63
2024-04-24T11:21:07.474Z,71.90
2024-04-24T11:23:37.586Z,77.33
2024-04-24T11:26:07.751Z,91.60
2024-04-24T11:28:37.833Z,98.27
2024-04-24T11:31:10.498Z,112.40
2024-04-24T11:33:45.994Z,121.87
2024-04-24T11:36:17.535Z,133.30
2024-04-24T11:38:47.720Z,118.37
2024-04-24T11:44:10.601Z,74.43
2024-04-24T11:46:55.378Z,65.67
2024-04-24T12:05:39.197Z,44.13
2024-04-24T12:08:27.515Z,48.00
2024-04-24T14:05:45.592Z,87.20
2024-04-24T14:26:41.869Z,91.73
2024-04-24T14:29:14.980Z,74.43
2024-04-24T14:31:45.449Z,73.63
2024-04-24T14:34:15.615Z,64.27
2024-04-24T14:36:45.718Z,64.13
2024-04-24T14:39:15.874Z,17.30
2024-04-24T14:41:48.537Z,17.00
2024-04-24T14:44:18.518Z,71.33
2024-04-24T14:46:49.887Z,73.33
2024-04-24T14:49:20.085Z,69.63
2024-04-24T14:51:50.550Z,67.40
2024-04-24T14:54:20.735Z,81.73
2024-04-24T14:56:53.482Z,73.77
2024-04-24T14:59:23.514Z,81.53
2024-04-24T15:01:53.898Z,81.47
2024-04-24T15:04:24.090Z,87.23
2024-04-24T15:07:08.168Z,83.87
2024-04-24T15:09:38.823Z,75.87
2024-04-24T15:12:17.010Z,77.33
2024-04-24T15:14:47.308Z,69.80
2024-04-24T15:17:17.372Z,73.73
2024-04-24T15:19:47.656Z,78.40
2024-04-24T15:22:17.990Z,79.23
2024-04-24T15:24:48.246Z,83.57
2024-04-24T15:27:21.061Z,79.13
2024-04-24T15:29:51.271Z,71.03
2024-04-24T15:32:21.515Z,68.77
2024-04-24T15:45:22.971Z,68.43
2024-04-24T15:47:53.143Z,93.20
2024-04-24T15:50:23.337Z,58.60
2024-04-24T15:52:53.382Z,53.90
2024-04-24T16:05:52.376Z,43.00
2024-04-24T16:08:22.654Z,36.10
2024-04-24T16:43:36.871Z,35.30
2024-04-24T16:46:07.297Z,36.73
2024-04-24T16:48:37.525Z,35.60
2024-04-24T16:51:10.944Z,35.87
2024-04-24T16:53:41.335Z,42.07
2024-04-24T16:56:47.646Z,56.47
2024-04-24T16:59:41.419Z,57.90
2024-04-24T17:05:29.159Z,44.13
2024-04-24T17:07:59.484Z,47.80
2024-04-24T17:14:06.312Z,37.90
2024-04-24T17:16:39.346Z,35.30
2024-04-24T17:19:09.793Z,36.80
2024-04-24T17:21:52.415Z,35.97
2024-04-24T17:24:19.842Z,35.10
2024-04-24T17:26:50.306Z,36.60
2024-04-24T17:29:20.495Z,35.70
2024-04-24T17:31:53.830Z,33.10
2024-04-24T17:34:24.883Z,34.40
2024-04-24T17:36:56.199Z,33.13
2024-04-24T17:39:28.729Z,34.57
2024-04-24T17:42:00.999Z,40.67
2024-04-24T17:58:24.708Z,56.77
2024-04-24T18:12:01.243Z,79.93
2024-04-24T18:15:28.284Z,93.37
2024-04-24T18:18:02.224Z,59.37
2024-04-24T18:24:25.926Z,50.03
2024-04-24T18:27:32.223Z,54.50
2024-04-24T18:30:08.029Z,55.47
2024-04-24T18:35:58.688Z,58.83
2024-04-24T18:46:37.531Z,49.43
2024-04-24T18:58:56.553Z,45.77
2024-04-24T19:49:13.304Z,41.30
2024-04-24T20:45:03.640Z,49.47
2024-04-24T23:53:03.243Z,16.80
2024-04-24T23:55:33.282Z,16.77
2024-04-24T23:58:03.278Z,15.80
